^^
Station Historical Data
Daily Summary for January 14, 2018 Units:  Metric    English   Both
« Previous Day
Next Day »
Daily Weekly Monthly Yearly Custom
  High: Low: Average:
Temperature: 28.3 °C 9.2 °C 16.1 °C
Dew Point: 2.7 °C -5.2 °C -0.5 °C
Humidity: 50 % 11 % 36 %
Wind Speed: 11.1 km/h 0.0 km/h 3.5 km/h
Wind Gust: 11.1 km/h - -
Wind:- - SE
Pressure: 1021.9 hPa 1016.8 hPa -
Precipitation: 0.0 mm    
Historical Graphs
 
 
Tabular Data for January 14, 2018
Time Temperature Dew Point Pressure Wind Wind Speed Wind Gust Humidity Rainfall Rate (Hourly) solar Conditions
00:05 11.4 °C -0.1 °C 1020.2 hPa Calm     45 % 0.0 mm 0.0 W/m2 CLR
00:10 11.4 °C -0.1 °C 1020.2 hPa NNE 1.9 km/h   45 % 0.0 mm 0.0 W/m2 CLR
00:18 11.3 °C 0.1 °C 1020.2 hPa NE 1.9 km/h 1.9 km/h 46 % 0.0 mm 0.0 W/m2 CLR
00:23 11.2 °C 0.0 °C 1020.2 hPa East 3.7 km/h 3.7 km/h 46 % 0.0 mm 0.0 W/m2 CLR
00:36 11.2 °C -0.1 °C 1020.2 hPa ENE 3.7 km/h 3.7 km/h 46 % 0.0 mm 0.0 W/m2 CLR
00:42 11.2 °C 0.0 °C 1019.9 hPa NE 1.9 km/h 1.9 km/h 46 % 0.0 mm 0.0 W/m2 CLR
00:51 11.3 °C -0.2 °C 1019.9 hPa NE 3.7 km/h 3.7 km/h 45 % 0.0 mm 0.0 W/m2 CLR
00:56 11.3 °C -0.2 °C 1019.9 hPa ESE 3.7 km/h 3.7 km/h 45 % 0.0 mm 0.0 W/m2 CLR
01:05 11.3 °C -0.2 °C 1019.9 hPa ENE 1.9 km/h 1.9 km/h 45 % 0.0 mm 0.0 W/m2 CLR
01:16 11.3 °C -0.6 °C 1019.9 hPa East 1.9 km/h 1.9 km/h 44 % 0.0 mm 0.0 W/m2 CLR
01:28 11.1 °C -0.4 °C 1019.9 hPa East 3.7 km/h 3.7 km/h 45 % 0.0 mm 0.0 W/m2 CLR
01:42 10.9 °C -0.6 °C 1019.9 hPa East 3.7 km/h 3.7 km/h 45 % 0.0 mm 0.0 W/m2 CLR
01:49 10.9 °C -0.6 °C 1019.9 hPa NNE 3.2 km/h 3.2 km/h 45 % 0.0 mm 0.0 W/m2 CLR
01:55 10.9 °C -0.6 °C 1019.9 hPa NE 1.6 km/h 1.6 km/h 45 % 0.0 mm 0.0 W/m2 CLR
02:05 10.8 °C -0.7 °C 1019.9 hPa NE 3.7 km/h 3.7 km/h 45 % 0.0 mm 0.0 W/m2 CLR
02:13 10.8 °C -0.7 °C 1019.9 hPa NE 1.9 km/h 1.9 km/h 45 % 0.0 mm 0.0 W/m2 CLR
02:26 10.8 °C -0.7 °C 1020.2 hPa NE 3.7 km/h 3.7 km/h 45 % 0.0 mm 0.0 W/m2 CLR
02:31 10.8 °C -0.7 °C 1020.2 hPa NE 5.6 km/h 5.6 km/h 45 % 0.0 mm 0.0 W/m2 CLR
02:36 10.8 °C -0.7 °C 1020.2 hPa ENE 6.4 km/h 6.4 km/h 45 % 0.0 mm 0.0 W/m2 CLR
02:44 10.7 °C -0.7 °C 1020.2 hPa NE 1.9 km/h 1.9 km/h 45 % 0.0 mm 0.0 W/m2 CLR
02:57 10.7 °C -0.5 °C 1019.9 hPa NE 3.7 km/h 3.7 km/h 46 % 0.0 mm 0.0 W/m2 CLR
03:04 10.5 °C -0.6 °C 1019.9 hPa ENE 1.6 km/h 3.2 km/h 46 % 0.0 mm 0.0 W/m2 CLR
03:09 10.4 °C -0.7 °C 1020.2 hPa ENE 3.7 km/h 3.7 km/h 46 % 0.0 mm 0.0 W/m2 CLR
03:22 10.3 °C -0.5 °C 1020.2 hPa NE 3.2 km/h 3.2 km/h 47 % 0.0 mm 0.0 W/m2 CLR
03:38 10.1 °C -0.4 °C 1020.2 hPa ENE 3.7 km/h 3.7 km/h 48 % 0.0 mm 0.0 W/m2 CLR
03:49 9.9 °C -0.6 °C 1020.2 hPa ENE 5.6 km/h 5.6 km/h 48 % 0.0 mm 0.0 W/m2 CLR
03:57 9.8 °C -0.7 °C 1019.9 hPa NE 3.7 km/h 3.7 km/h 48 % 0.0 mm 0.0 W/m2 CLR
04:02 9.8 °C -0.4 °C 1019.9 hPa NE 3.7 km/h 3.7 km/h 49 % 0.0 mm 0.0 W/m2 CLR
04:07 9.8 °C -0.4 °C 1019.9 hPa NE 3.7 km/h 3.7 km/h 49 % 0.0 mm 0.0 W/m2 CLR
04:12 9.7 °C -0.6 °C 1019.9 hPa NNE 5.6 km/h 5.6 km/h 49 % 0.0 mm 0.0 W/m2 CLR
04:19 9.6 °C -0.6 °C 1019.9 hPa NE 3.7 km/h 3.7 km/h 49 % 0.0 mm 0.0 W/m2 CLR
04:32 9.4 °C -0.4 °C 1020.2 hPa NNE 5.6 km/h 5.6 km/h 50 % 0.0 mm 0.0 W/m2 CLR
04:37 9.3 °C -0.6 °C 1020.2 hPa NE 3.7 km/h 3.7 km/h 50 % 0.0 mm 0.0 W/m2 CLR
04:43 9.3 °C -0.6 °C 1020.2 hPa ESE 3.7 km/h 3.7 km/h 50 % 0.0 mm 0.0 W/m2 CLR
04:48 9.3 °C -0.6 °C 1020.2 hPa NE 3.7 km/h 3.7 km/h 50 % 0.0 mm 0.0 W/m2 CLR
04:55 9.3 °C -0.8 °C 1020.2 hPa East 1.9 km/h 1.9 km/h 49 % 0.0 mm 0.0 W/m2 CLR
05:00 9.4 °C -1.1 °C 1020.2 hPa East 3.7 km/h 3.7 km/h 48 % 0.0 mm 0.0 W/m2 CLR
05:06 9.4 °C -1.1 °C 1020.2 hPa ESE 1.9 km/h 1.9 km/h 48 % 0.0 mm 0.0 W/m2 CLR
05:18 9.4 °C -1.1 °C 1019.9 hPa ESE 1.9 km/h 1.9 km/h 48 % 0.0 mm 0.0 W/m2 CLR
05:39 9.3 °C -0.9 °C 1019.9 hPa ESE 3.7 km/h 3.7 km/h 49 % 0.0 mm 0.0 W/m2 CLR
05:51 9.3 °C -0.9 °C 1019.9 hPa SE 3.7 km/h 3.7 km/h 49 % 0.0 mm 0.0 W/m2 CLR
05:56 9.3 °C -0.8 °C 1019.9 hPa ESE 3.7 km/h 3.7 km/h 49 % 0.0 mm 0.0 W/m2 CLR
06:03 9.3 °C -1.1 °C 1019.9 hPa ESE 1.9 km/h 1.9 km/h 48 % 0.0 mm 0.0 W/m2 CLR
06:17 9.5 °C -1.0 °C 1020.2 hPa East 3.7 km/h 3.7 km/h 48 % 0.0 mm 0.0 W/m2 CLR
06:22 9.6 °C -1.2 °C 1020.2 hPa ENE 5.6 km/h 5.6 km/h 47 % 0.0 mm 0.0 W/m2 CLR
06:30 9.7 °C -1.3 °C 1020.2 hPa East 1.9 km/h 1.9 km/h 46 % 0.0 mm 0.0 W/m2 CLR
06:35 9.7 °C -1.3 °C 1020.2 hPa East 1.9 km/h 1.9 km/h 46 % 0.0 mm 0.0 W/m2 CLR
06:40 9.7 °C -1.4 °C 1020.2 hPa East 1.9 km/h 1.9 km/h 46 % 0.0 mm 0.0 W/m2 CLR
06:49 9.4 °C -1.1 °C 1020.5 hPa ENE 1.9 km/h 1.9 km/h 48 % 0.0 mm 0.0 W/m2 CLR
06:55 9.3 °C -1.1 °C 1020.5 hPa ENE 1.9 km/h 1.9 km/h 48 % 0.0 mm 0.0 W/m2 CLR
07:00 9.2 °C -1.2 °C 1020.5 hPa ENE 1.9 km/h   48 % 0.0 mm 0.0 W/m2 CLR
07:06 9.2 °C -1.3 °C 1020.5 hPa Calm     48 % 0.0 mm 0.0 W/m2 CLR
07:12 9.2 °C -1.6 °C 1020.5 hPa ENE 5.6 km/h 5.6 km/h 47 % 0.0 mm 0.0 W/m2 CLR
07:22 9.4 °C -1.7 °C 1020.9 hPa East 1.9 km/h 1.9 km/h 46 % 0.0 mm 0.0 W/m2 CLR
07:36 9.3 °C -1.4 °C 1020.9 hPa East 3.7 km/h 3.7 km/h 47 % 0.0 mm 11.0 W/m2 CLR
07:43 9.3 °C -1.4 °C 1020.9 hPa East 1.9 km/h 1.9 km/h 47 % 0.0 mm 18.0 W/m2 CLR
07:50 9.4 °C -1.6 °C 1020.9 hPa SE 3.2 km/h 3.2 km/h 46 % 0.0 mm 26.0 W/m2 CLR
07:55 9.6 °C -1.5 °C 1020.9 hPa SE 1.9 km/h 1.9 km/h 46 % 0.0 mm 30.0 W/m2 CLR
08:08 10.3 °C -1.4 °C 1021.2 hPa ESE 3.7 km/h 3.7 km/h 44 % 0.0 mm 54.0 W/m2 CLR
08:14 10.6 °C -1.4 °C 1021.2 hPa East 3.2 km/h 3.2 km/h 43 % 0.0 mm 42.0 W/m2 CLR
08:31 11.8 °C -1.3 °C 1021.2 hPa East 4.8 km/h 4.8 km/h 40 % 0.0 mm 204.0 W/m2 CLR
08:45 12.8 °C -1.2 °C 1021.6 hPa NNE 5.6 km/h 5.6 km/h 38 % 0.0 mm 269.0 W/m2 CLR
08:52 13.2 °C -0.8 °C 1021.6 hPa NNE 4.8 km/h 4.8 km/h 38 % 0.0 mm 290.0 W/m2 CLR
09:04 13.9 °C -0.9 °C 1021.6 hPa SE 3.7 km/h 3.7 km/h 36 % 0.0 mm 339.0 W/m2 CLR
09:09 14.2 °C -0.7 °C 1021.6 hPa ENE 5.6 km/h 5.6 km/h 36 % 0.0 mm 359.0 W/m2 CLR
09:14 14.6 °C -0.7 °C 1021.6 hPa ESE 3.7 km/h 3.7 km/h 35 % 0.0 mm 397.0 W/m2 CLR
09:19 14.9 °C -0.4 °C 1021.6 hPa East 7.4 km/h 7.4 km/h 35 % 0.0 mm 403.0 W/m2 CLR
09:46 16.3 °C -0.9 °C 1021.9 hPa ESE 5.6 km/h 5.6 km/h 31 % 0.0 mm 371.0 W/m2 CLR
09:51 16.5 °C -1.2 °C 1021.9 hPa SE 5.6 km/h 5.6 km/h 30 % 0.0 mm 360.0 W/m2 CLR
09:59 16.7 °C -1.0 °C 1021.9 hPa ESE 3.7 km/h 3.7 km/h 30 % 0.0 mm 408.0 W/m2 CLR
10:06 16.9 °C -0.8 °C 1021.9 hPa ENE 5.6 km/h 5.6 km/h 30 % 0.0 mm 369.0 W/m2 FEW
10:11 17.1 °C -1.1 °C 1021.9 hPa NE 7.4 km/h 7.4 km/h 29 % 0.0 mm 369.0 W/m2 FEW
10:27 17.7 °C -0.6 °C 1021.9 hPa ENE 7.4 km/h 7.4 km/h 29 % 0.0 mm 443.0 W/m2 FEW
10:33 17.9 °C -0.4 °C 1021.6 hPa NNE 5.6 km/h 5.6 km/h 29 % 0.0 mm 520.0 W/m2 FEW
10:40 18.3 °C -0.5 °C 1021.6 hPa ESE 3.7 km/h 3.7 km/h 28 % 0.0 mm 606.0 W/m2 FEW
10:49 18.8 °C -1.2 °C 1021.6 hPa NNE 3.7 km/h 3.7 km/h 26 % 0.0 mm 642.0 W/m2 FEW
10:58 19.4 °C -1.2 °C 1021.6 hPa East 3.7 km/h 3.7 km/h 25 % 0.0 mm 831.0 W/m2 FEW
11:12 20.3 °C -0.9 °C 1021.6 hPa NE 3.7 km/h 3.7 km/h 24 % 0.0 mm 483.0 W/m2 CLR
11:28 21.1 °C -2.1 °C 1021.2 hPa South 1.9 km/h 1.9 km/h 21 % 0.0 mm 596.0 W/m2 CLR
11:34 21.3 °C -1.3 °C 1021.2 hPa NNE 1.9 km/h 1.9 km/h 22 % 0.0 mm 582.0 W/m2 CLR
11:44 21.6 °C -1.7 °C 1020.9 hPa SE 1.9 km/h 1.9 km/h 21 % 0.0 mm 471.0 W/m2 CLR
11:49 21.7 °C -1.6 °C 1020.9 hPa SE 3.7 km/h 3.7 km/h 21 % 0.0 mm 638.0 W/m2 CLR
11:56 22.0 °C -2.0 °C 1020.5 hPa SE 1.9 km/h 1.9 km/h 20 % 0.0 mm 675.0 W/m2 CLR
12:01 22.2 °C -2.5 °C 1020.5 hPa SE 3.7 km/h 3.7 km/h 19 % 0.0 mm 543.0 W/m2 CLR
12:08 22.5 °C -1.6 °C 1020.5 hPa East 3.2 km/h 3.2 km/h 20 % 0.0 mm 659.0 W/m2 CLR
12:13 22.8 °C -2.0 °C 1020.2 hPa NE 5.6 km/h 5.6 km/h 19 % 0.0 mm 529.0 W/m2 CLR
12:37 23.4 °C -3.1 °C 1019.9 hPa ENE 4.8 km/h 4.8 km/h 17 % 0.0 mm 596.0 W/m2 CLR
12:55 23.6 °C -2.9 °C 1019.2 hPa NE 7.4 km/h 7.4 km/h 17 % 0.0 mm 638.0 W/m2 CLR
13:12 24.0 °C -2.6 °C 1018.8 hPa NE 11.1 km/h 11.1 km/h 17 % 0.0 mm 659.0 W/m2 CLR
13:20 24.3 °C -2.3 °C 1018.5 hPa NNE 5.6 km/h 5.6 km/h 17 % 0.0 mm 663.0 W/m2 CLR
13:25 24.4 °C -2.2 °C 1018.5 hPa ENE 1.9 km/h 1.9 km/h 17 % 0.0 mm 636.0 W/m2 CLR
13:43 25.2 °C -3.3 °C 1018.2 hPa NE 5.6 km/h 5.6 km/h 15 % 0.0 mm 659.0 W/m2 CLR
13:50 25.4 °C -2.2 °C 1017.8 hPa North 4.8 km/h 4.8 km/h 16 % 0.0 mm 619.0 W/m2 CLR
14:00 25.7 °C -2.9 °C 1017.8 hPa NE 7.4 km/h 7.4 km/h 15 % 0.0 mm 601.0 W/m2 CLR
14:06 25.8 °C -2.8 °C 1017.5 hPa North 3.7 km/h 3.7 km/h 15 % 0.0 mm 591.0 W/m2 CLR
14:14 26.2 °C -2.5 °C 1017.5 hPa North 6.4 km/h 6.4 km/h 15 % 0.0 mm 571.0 W/m2 CLR
14:20 26.4 °C -2.3 °C 1017.5 hPa NE 7.4 km/h 7.4 km/h 15 % 0.0 mm 520.0 W/m2 CLR
14:27 26.5 °C -2.3 °C 1017.2 hPa NNE 3.7 km/h 3.7 km/h 15 % 0.0 mm 527.0 W/m2 CLR
14:33 26.8 °C -2.9 °C 1017.2 hPa North 5.6 km/h 5.6 km/h 14 % 0.0 mm 547.0 W/m2 CLR
14:39 26.9 °C -3.8 °C 1017.2 hPa NNE 3.7 km/h 3.7 km/h 13 % 0.0 mm 529.0 W/m2 CLR
14:44 27.1 °C -2.8 °C 1017.2 hPa NNE 3.7 km/h 3.7 km/h 14 % 0.0 mm 515.0 W/m2 CLR
14:49 27.4 °C -2.5 °C 1017.2 hPa North 1.9 km/h 1.9 km/h 14 % 0.0 mm 499.0 W/m2 CLR
14:58 27.9 °C -3.1 °C 1017.2 hPa North 1.9 km/h 1.9 km/h 13 % 0.0 mm 499.0 W/m2 CLR
15:06 28.1 °C -5.2 °C 1016.8 hPa North 3.7 km/h 3.7 km/h 11 % 0.0 mm 454.0 W/m2 CLR
15:30 28.3 °C -3.8 °C 1016.8 hPa WSW 5.6 km/h 5.6 km/h 12 % 0.0 mm 394.0 W/m2 CLR
15:35 28.3 °C -5.0 °C 1016.8 hPa NW 5.6 km/h 5.6 km/h 11 % 0.0 mm 339.0 W/m2 CLR
15:40 28.2 °C -3.9 °C 1016.8 hPa NW 1.9 km/h   12 % 0.0 mm 323.0 W/m2 CLR
15:49 28.1 °C -4.1 °C 1016.8 hPa NNW 1.9 km/h   12 % 0.0 mm 272.0 W/m2 CLR
15:54 27.9 °C -4.1 °C 1016.8 hPa West 3.7 km/h 3.7 km/h 12 % 0.0 mm 227.0 W/m2 CLR
16:01 27.9 °C -4.2 °C 1016.8 hPa West 3.7 km/h 3.7 km/h 12 % 0.0 mm 251.0 W/m2 CLR
16:07 27.7 °C -4.3 °C 1016.8 hPa West 3.7 km/h 3.7 km/h 12 % 0.0 mm 176.0 W/m2 CLR
16:17 27.4 °C -2.5 °C 1016.8 hPa West 3.7 km/h 3.7 km/h 14 % 0.0 mm 229.0 W/m2 CLR
16:22 27.3 °C -2.6 °C 1016.8 hPa WNW 3.7 km/h 3.7 km/h 14 % 0.0 mm 221.0 W/m2 CLR
16:39 26.9 °C 1.3 °C 1016.8 hPa West 6.4 km/h 6.4 km/h 19 % 0.0 mm 158.0 W/m2 CLR
16:46 26.1 °C 2.0 °C 1016.8 hPa WSW 7.4 km/h 7.4 km/h 21 % 0.0 mm 128.0 W/m2 CLR
16:51 25.6 °C 1.6 °C 1016.8 hPa West 11.1 km/h 11.1 km/h 21 % 0.0 mm 93.0 W/m2 CLR
16:56 25.0 °C 1.2 °C 1016.8 hPa West 7.4 km/h 7.4 km/h 21 % 0.0 mm 72.0 W/m2 CLR
17:01 24.4 °C 1.3 °C 1016.8 hPa West 5.6 km/h 5.6 km/h 22 % 0.0 mm 56.0 W/m2 CLR
17:28 23.0 °C 0.7 °C 1017.2 hPa West 5.6 km/h 5.6 km/h 23 % 0.0 mm 16.0 W/m2 CLR
17:40 22.2 °C 0.6 °C 1017.2 hPa WSW 3.7 km/h 3.7 km/h 24 % 0.0 mm 0.0 W/m2 CLR
17:48 21.7 °C 0.8 °C 1017.2 hPa West 5.6 km/h 5.6 km/h 25 % 0.0 mm 0.0 W/m2 CLR
17:55 21.2 °C 0.9 °C 1017.5 hPa West 3.7 km/h 3.7 km/h 26 % 0.0 mm 0.0 W/m2 CLR
18:01 20.7 °C 1.6 °C 1017.5 hPa WSW 5.6 km/h 5.6 km/h 28 % 0.0 mm 0.0 W/m2 CLR
18:08 20.3 °C 1.7 °C 1017.5 hPa WSW 3.7 km/h 3.7 km/h 29 % 0.0 mm 0.0 W/m2 CLR
18:15 20.0 °C 1.4 °C 1017.5 hPa WSW 3.7 km/h 3.7 km/h 29 % 0.0 mm 0.0 W/m2 CLR
18:22 19.8 °C 1.2 °C 1017.5 hPa WSW 1.6 km/h 1.6 km/h 29 % 0.0 mm 0.0 W/m2 CLR
18:27 19.7 °C 1.6 °C 1017.5 hPa WSW 3.7 km/h 3.7 km/h 30 % 0.0 mm 0.0 W/m2 CLR
18:32 19.4 °C 0.9 °C 1017.5 hPa WSW 1.9 km/h 1.9 km/h 29 % 0.0 mm 0.0 W/m2 CLR
18:37 19.2 °C 0.7 °C 1017.5 hPa WSW 3.7 km/h 3.7 km/h 29 % 0.0 mm 0.0 W/m2 CLR
18:51 18.7 °C 1.2 °C 1017.8 hPa Calm     31 % 0.0 mm 0.0 W/m2 CLR
18:56 18.6 °C 1.1 °C 1017.8 hPa Calm     31 % 0.0 mm 0.0 W/m2 CLR
19:02 18.3 °C 0.9 °C 1017.8 hPa Calm     31 % 0.0 mm 0.0 W/m2 CLR
19:09 18.2 °C 1.2 °C 1017.8 hPa Calm     32 % 0.0 mm 0.0 W/m2 CLR
19:14 17.8 °C 1.3 °C 1017.8 hPa North 1.6 km/h 1.6 km/h 33 % 0.0 mm 0.0 W/m2 CLR
19:21 17.6 °C 1.5 °C 1017.8 hPa Calm     34 % 0.0 mm 0.0 W/m2 CLR
19:30 17.3 °C 1.7 °C 1017.8 hPa Calm     35 % 0.0 mm 0.0 W/m2 CLR
19:41 16.7 °C 1.9 °C 1017.8 hPa North 1.9 km/h 1.9 km/h 37 % 0.0 mm 0.0 W/m2 CLR
19:49 16.1 °C 2.1 °C 1017.8 hPa Calm     39 % 0.0 mm 0.0 W/m2 CLR
19:56 15.8 °C 2.6 °C 1017.8 hPa Calm     41 % 0.0 mm 0.0 W/m2 CLR
20:11 14.8 °C 2.6 °C 1018.2 hPa North 1.9 km/h 1.9 km/h 44 % 0.0 mm 0.0 W/m2 CLR
20:22 14.3 °C 2.6 °C 1018.2 hPa North 1.9 km/h 1.9 km/h 45 % 0.0 mm 0.0 W/m2 CLR
20:27 14.1 °C 2.3 °C 1018.2 hPa Calm     45 % 0.0 mm 0.0 W/m2 CLR
20:36 13.8 °C 2.4 °C 1018.5 hPa North 1.9 km/h   46 % 0.0 mm 0.0 W/m2 CLR
20:41 13.8 °C 2.4 °C 1018.2 hPa Calm     46 % 0.0 mm 0.0 W/m2 CLR
20:46 13.8 °C 2.3 °C 1018.2 hPa North 1.9 km/h 1.9 km/h 46 % 0.0 mm 0.0 W/m2 CLR
20:52 13.7 °C 2.0 °C 1018.5 hPa North 1.9 km/h 1.9 km/h 45 % 0.0 mm 0.0 W/m2 CLR
20:57 13.7 °C 2.3 °C 1018.5 hPa North 1.9 km/h 1.9 km/h 46 % 0.0 mm 0.0 W/m2 CLR
21:13 13.4 °C 2.7 °C 1018.5 hPa North 1.9 km/h 1.9 km/h 48 % 0.0 mm 0.0 W/m2 CLR
21:19 13.4 °C 2.6 °C 1018.5 hPa North 3.7 km/h 3.7 km/h 48 % 0.0 mm 0.0 W/m2 CLR
21:24 13.3 °C 2.2 °C 1018.5 hPa Calm   3.2 km/h 47 % 0.0 mm 0.0 W/m2 CLR
21:34 13.1 °C 1.7 °C 1018.8 hPa North 1.9 km/h 1.9 km/h 46 % 0.0 mm 0.0 W/m2 CLR
21:51 12.9 °C 1.6 °C 1018.5 hPa North 1.9 km/h 1.9 km/h 46 % 0.0 mm 0.0 W/m2 CLR
21:58 12.8 °C 1.5 °C 1018.5 hPa North 3.7 km/h 3.7 km/h 46 % 0.0 mm 0.0 W/m2 CLR
22:16 12.7 °C 1.0 °C 1018.8 hPa North 3.2 km/h 3.2 km/h 45 % 0.0 mm 0.0 W/m2 CLR
22:21 12.6 °C 0.7 °C 1018.8 hPa North 3.7 km/h 3.7 km/h 44 % 0.0 mm 0.0 W/m2 CLR
22:32 12.5 °C 0.9 °C 1018.8 hPa North 3.2 km/h 3.2 km/h 45 % 0.0 mm 0.0 W/m2 CLR
22:39 12.4 °C 0.8 °C 1018.8 hPa North 1.9 km/h 1.9 km/h 45 % 0.0 mm 0.0 W/m2 CLR
22:48 12.3 °C 1.0 °C 1018.8 hPa North 5.6 km/h 5.6 km/h 46 % 0.0 mm 0.0 W/m2 CLR
23:00 12.0 °C 1.0 °C 1018.8 hPa NE 5.6 km/h 5.6 km/h 47 % 0.0 mm 0.0 W/m2 CLR
23:05 11.8 °C 1.2 °C 1018.8 hPa NE 4.8 km/h 4.8 km/h 48 % 0.0 mm 0.0 W/m2 CLR
23:18 11.6 °C 1.2 °C 1018.8 hPa NE 3.7 km/h 3.7 km/h 49 % 0.0 mm 0.0 W/m2 CLR
23:23 11.6 °C 1.2 °C 1018.8 hPa NE 3.7 km/h 3.7 km/h 49 % 0.0 mm 0.0 W/m2 CLR
23:30 11.6 °C 0.9 °C 1018.8 hPa NE 3.7 km/h 3.7 km/h 48 % 0.0 mm 0.0 W/m2 CLR
23:39 11.6 °C 0.9 °C 1018.8 hPa NE 3.7 km/h 3.7 km/h 48 % 0.0 mm 0.0 W/m2 CLR
23:52 11.4 °C 0.8 °C 1018.8 hPa NE 1.9 km/h 1.9 km/h 48 % 0.0 mm 0.0 W/m2 CLR
23:59 11.2 °C 0.6 °C 1018.8 hPa NE 1.9 km/h 1.9 km/h 48 % 0.0 mm 0.0 W/m2 CLR
Countryside Manor, Tucson, AZ, USA
Compliments of Weather Underground - 4 mb